createdAt,value
2023-10-11T00:08:27.578Z,13.81
2023-10-11T00:23:33.461Z,13.75
2023-10-11T00:38:49.478Z,13.69
2023-10-11T00:53:58.064Z,13.69
2023-10-11T01:09:10.435Z,13.69
2023-10-11T01:24:18.102Z,13.56
2023-10-11T01:39:23.724Z,13.56
2023-10-11T01:54:29.283Z,13.44
2023-10-11T02:09:35.306Z,13.44
2023-10-11T02:24:40.654Z,13.38
2023-10-11T02:39:47.117Z,13.38
2023-10-11T02:54:56.282Z,13.31
2023-10-11T03:10:01.897Z,13.38
2023-10-11T03:25:14.409Z,13.38
2023-10-11T03:40:36.710Z,13.38
2023-10-11T03:55:47.426Z,13.38
2023-10-11T04:10:53.006Z,13.25
2023-10-11T04:26:00.165Z,13.19
2023-10-11T04:41:17.535Z,13.19
2023-10-11T04:56:40.782Z,13.19
2023-10-11T05:11:51.913Z,13.13
2023-10-11T05:27:13.413Z,13.00
2023-10-11T05:42:36.987Z,13.00
2023-10-11T05:57:44.243Z,13.00
2023-10-11T06:12:49.705Z,13.13
2023-10-11T06:28:15.187Z,13.25
2023-10-11T06:43:21.526Z,13.31
2023-10-11T06:58:27.307Z,13.44
2023-10-11T07:13:51.485Z,13.63
2023-10-11T07:28:57.663Z,13.88
2023-10-11T07:44:03.975Z,14.00
2023-10-11T07:59:10.352Z,14.38
2023-10-11T08:14:16.743Z,14.69
2023-10-11T08:29:30.694Z,14.88
2023-10-11T08:44:36.190Z,15.25
2023-10-11T08:59:51.752Z,15.88
2023-10-11T09:15:02.087Z,18.44
2023-10-11T09:30:24.539Z,17.88
2023-10-11T09:45:43.796Z,17.63
2023-10-11T10:01:08.405Z,17.88
2023-10-11T10:16:15.673Z,18.25
2023-10-11T10:31:25.344Z,18.63
2023-10-11T10:46:31.340Z,18.69
2023-10-11T11:01:36.813Z,18.94
2023-10-11T11:16:45.746Z,19.19
2023-10-11T11:31:55.598Z,19.13
2023-10-11T11:47:06.416Z,19.13
2023-10-11T12:02:19.021Z,19.06
2023-10-11T12:17:27.469Z,19.13
2023-10-11T12:32:34.922Z,19.25
2023-10-11T12:47:41.098Z,19.25
2023-10-11T13:02:49.893Z,19.25
2023-10-11T13:17:56.365Z,19.19
2023-10-11T13:33:02.119Z,19.13
2023-10-11T13:48:13.178Z,19.06
2023-10-11T14:03:32.913Z,19.06
2023-10-11T14:18:40.315Z,18.88
2023-10-11T14:33:46.760Z,18.69
2023-10-11T14:48:54.143Z,18.63
2023-10-11T15:04:02.208Z,18.38
2023-10-11T15:19:11.164Z,18.38
2023-10-11T15:34:20.506Z,18.50
2023-10-11T15:49:26.658Z,18.31
2023-10-11T16:04:33.410Z,18.06
2023-10-11T16:19:39.689Z,17.69
2023-10-11T16:34:45.479Z,17.38
2023-10-11T16:49:52.969Z,17.19
2023-10-11T17:04:58.702Z,16.94
2023-10-11T17:20:06.078Z,16.63
2023-10-11T17:35:14.804Z,16.56
2023-10-11T17:50:24.018Z,16.25
2023-10-11T18:05:30.114Z,16.13
2023-10-11T18:20:38.434Z,15.94
2023-10-11T18:35:45.336Z,15.81
2023-10-11T18:50:50.736Z,15.69
2023-10-11T19:05:56.431Z,15.50
2023-10-11T19:21:07.121Z,15.31
2023-10-11T19:36:13.153Z,15.25
2023-10-11T19:51:19.417Z,15.13
2023-10-11T20:06:25.882Z,15.06
2023-10-11T20:21:31.750Z,14.94
2023-10-11T20:36:37.507Z,14.88
2023-10-11T20:51:43.814Z,15.00
2023-10-11T21:06:51.574Z,14.69
2023-10-11T21:21:58.211Z,14.81
2023-10-11T21:37:03.515Z,14.88
2023-10-11T21:52:09.473Z,14.88
2023-10-11T22:07:18.919Z,14.69
2023-10-11T22:22:25.077Z,14.75
2023-10-11T22:37:36.517Z,14.69
2023-10-11T22:52:42.663Z,14.50
2023-10-11T23:07:49.386Z,14.31
2023-10-11T23:22:55.279Z,14.25
2023-10-11T23:38:15.585Z,14.31
2023-10-11T23:53:21.816Z,14.31
